Time;durP1;ratioP1;P1;durP2;ratioP2;P2;SDS_P1;SDS_P2;PMS_P1;PMS_P2;Temp;Humidity;BMP_temperature;BMP_pressure;BME280_temperature;BME280_humidity;BME280_pressure;Samples;Min_cycle;Max_cycle;Signal;HPM_P1;HPM_P2
2021/07/05 00:01:06;;;;;;;38.83;30.48;;;;;8.80;101503.00;;;;5109788;28;20048;-77
2021/07/05 00:03:33;;;;;;;38.00;26.83;;;;;8.80;101535.00;;;;5110122;28;20031;-76
2021/07/05 00:06:00;;;;;;;33.67;25.90;;;;;8.80;101518.00;;;;5110075;28;20509;-75
2021/07/05 00:08:26;;;;;;;36.78;27.17;;;;;8.70;101513.00;;;;5109704;28;20032;-75
2021/07/05 00:10:53;;;;;;;33.38;25.80;;;;;8.60;101517.00;;;;5108806;28;20020;-76
2021/07/05 00:13:19;;;;;;;35.72;25.10;;;;;8.60;101519.00;;;;5109923;28;20031;-75
2021/07/05 00:15:46;;;;;;;30.80;23.73;;;;;8.60;101506.00;;;;5110286;28;20543;-76
2021/07/05 00:18:13;;;;;;;33.75;25.33;;;;;8.60;101531.00;;;;5109937;28;20398;-75
2021/07/05 00:20:43;;;;;;;24.75;20.42;;;;;8.50;101494.00;;;;5109714;28;20031;-76
2021/07/05 00:23:11;;;;;;;23.15;20.02;;;;;8.40;101498.00;;;;5109784;28;20024;-76
2021/07/05 00:25:38;;;;;;;28.30;21.77;;;;;8.40;101495.00;;;;5109429;28;20114;-75
2021/07/05 00:28:06;;;;;;;29.85;21.77;;;;;8.40;101516.00;;;;5109163;28;20509;-75
2021/07/05 00:30:34;;;;;;;30.70;23.35;;;;;8.30;101507.00;;;;5109573;28;20036;-76
2021/07/05 00:33:00;;;;;;;32.10;21.48;;;;;8.30;101479.00;;;;5108907;28;20031;-76
2021/07/05 00:35:28;;;;;;;25.40;20.38;;;;;8.20;101486.00;;;;5110075;28;20031;-76
2021/07/05 00:37:56;;;;;;;30.73;23.65;;;;;8.20;101503.00;;;;5109039;28;20088;-75
2021/07/05 00:40:24;;;;;;;32.53;22.83;;;;;8.20;101480.00;;;;5109408;28;20031;-75
2021/07/05 00:42:52;;;;;;;33.28;23.35;;;;;8.20;101476.00;;;;5109381;28;20027;-76
2021/07/05 00:45:20;;;;;;;37.70;21.17;;;;;8.10;101482.00;;;;5108982;28;20064;-75
2021/07/05 00:47:47;;;;;;;27.25;19.15;;;;;8.10;101500.00;;;;5109550;28;20055;-76
2021/07/05 00:50:16;;;;;;;29.20;21.92;;;;;8.20;101482.00;;;;5107683;28;20436;-77
2021/07/05 00:52:44;;;;;;;33.15;19.33;;;;;8.20;101495.00;;;;5108176;28;20031;-76
2021/07/05 00:55:13;;;;;;;25.92;19.83;;;;;8.10;101475.00;;;;5090899;28;20027;-76
2021/07/05 00:57:40;;;;;;;29.08;20.88;;;;;8.10;101486.00;;;;5108533;28;20035;-76
2021/07/05 01:00:10;;;;;;;33.28;21.77;;;;;8.10;101494.00;;;;5109017;28;20552;-76
2021/07/05 01:02:37;;;;;;;26.02;20.75;;;;;8.10;101464.00;;;;5109057;28;20449;-76
2021/07/05 01:05:05;;;;;;;42.55;20.13;;;;;8.00;101494.00;;;;5108871;28;20447;-76
2021/07/05 01:07:31;;;;;;;30.35;17.27;;;;;8.00;101489.00;;;;5108728;28;20082;-76
2021/07/05 01:10:00;;;;;;;27.30;18.33;;;;;7.90;101472.00;;;;5108830;28;20036;-76
2021/07/05 01:12:27;;;;;;;18.00;16.10;;;;;7.90;101461.00;;;;5109101;28;20402;-76
2021/07/05 01:14:53;;;;;;;20.17;16.60;;;;;7.90;101467.00;;;;5108743;28;20038;-76
2021/07/05 01:17:20;;;;;;;21.70;15.75;;;;;7.90;101489.00;;;;5108256;28;20024;-75
2021/07/05 01:19:50;;;;;;;21.67;14.77;;;;;7.90;101493.00;;;;5108590;28;20107;-76
2021/07/05 01:22:18;;;;;;;18.65;15.23;;;;;7.90;101462.00;;;;5107500;28;20076;-75
2021/07/05 01:24:47;;;;;;;23.65;16.38;;;;;7.90;101493.00;;;;5108351;28;20097;-76
2021/07/05 01:27:14;;;;;;;25.35;16.30;;;;;7.80;101452.00;;;;5108328;28;20027;-76
2021/07/05 01:29:41;;;;;;;20.00;15.85;;;;;7.80;101474.00;;;;5107899;28;20031;-76
2021/07/05 01:32:10;;;;;;;28.75;16.42;;;;;7.80;101487.00;;;;5090116;28;20039;-76
2021/07/05 01:34:37;;;;;;;21.92;16.45;;;;;7.80;101478.00;;;;5108585;28;20024;-76
2021/07/05 01:37:06;;;;;;;25.58;16.55;;;;;7.90;101467.00;;;;5108925;28;20485;-76
2021/07/05 01:39:33;;;;;;;29.50;18.17;;;;;7.90;101501.00;;;;5108622;28;20041;-76
2021/07/05 01:42:00;;;;;;;25.33;17.25;;;;;7.80;101470.00;;;;5108015;28;20032;-76
2021/07/05 01:44:27;;;;;;;24.02;16.00;;;;;7.80;101470.00;;;;5107768;28;20076;-76
2021/07/05 01:46:53;;;;;;;25.67;16.13;;;;;7.90;101480.00;;;;5108295;28;20630;-76
2021/07/05 01:49:20;;;;;;;28.48;20.58;;;;;7.80;101482.00;;;;5108168;28;20035;-76
2021/07/05 01:51:47;;;;;;;29.60;22.92;;;;;7.80;101465.00;;;;5107559;28;20031;-76
2021/07/05 01:54:14;;;;;;;24.25;17.45;;;;;7.80;101492.00;;;;5107861;28;20053;-76
2021/07/05 01:56:44;;;;;;;171.90;14.52;;;;;7.70;101472.00;;;;5089281;28;20072;-75
2021/07/05 01:59:11;;;;;;;49.40;14.48;;;;;7.60;101498.00;;;;5108033;28;20103;-77
2021/07/05 02:01:39;;;;;;;25.05;17.38;;;;;7.60;101463.00;;;;5107822;28;20108;-76
2021/07/05 02:04:06;;;;;;;27.83;18.85;;;;;7.50;101491.00;;;;5108570;28;20043;-77
2021/07/05 02:06:34;;;;;;;23.27;16.83;;;;;7.50;101468.00;;;;5107614;28;20070;-77
2021/07/05 02:09:01;;;;;;;25.70;18.75;;;;;7.60;101476.00;;;;5107565;28;20107;-77
2021/07/05 02:11:27;;;;;;;27.17;18.80;;;;;7.50;101460.00;;;;5107228;28;20054;-77
2021/07/05 02:13:54;;;;;;;25.67;15.60;;;;;7.40;101469.00;;;;5107992;28;20023;-77
2021/07/05 02:16:20;;;;;;;26.13;16.52;;;;;7.40;101461.00;;;;5107676;28;20469;-77
2021/07/05 02:18:47;;;;;;;25.70;18.05;;;;;7.40;101468.00;;;;5107668;28;20038;-77
2021/07/05 02:21:13;;;;;;;28.17;17.10;;;;;7.50;101474.00;;;;5088945;28;20433;-77
2021/07/05 02:23:40;;;;;;;23.23;17.60;;;;;7.40;101476.00;;;;5107484;28;20028;-77
2021/07/05 02:26:07;;;;;;;20.90;17.58;;;;;7.40;101465.00;;;;5107049;28;20483;-77
2021/07/05 02:28:37;;;;;;;24.48;17.10;;;;;7.30;101490.00;;;;5108161;28;20046;-77
2021/07/05 02:31:06;;;;;;;33.53;19.52;;;;;7.10;101484.00;;;;5107501;28;20569;-78
2021/07/05 02:33:34;;;;;;;31.35;20.20;;;;;7.10;101463.00;;;;5107322;28;20053;-77
2021/07/05 02:36:03;;;;;;;28.60;19.17;;;;;7.30;101474.00;;;;5107391;28;20088;-76
2021/07/05 02:38:31;;;;;;;26.00;18.40;;;;;7.30;101482.00;;;;5106682;28;20426;-78
2021/07/05 02:40:58;;;;;;;34.47;22.45;;;;;7.40;101463.00;;;;5107618;28;20482;-77
2021/07/05 02:43:25;;;;;;;40.35;23.90;;;;;7.40;101465.00;;;;5107340;28;20034;-78
2021/07/05 02:45:53;;;;;;;40.80;24.40;;;;;7.40;101457.00;;;;5107244;28;20394;-78
2021/07/05 02:48:23;;;;;;;34.53;21.95;;;;;7.50;101444.00;;;;5106698;28;20031;-77
2021/07/05 02:50:53;;;;;;;32.85;24.10;;;;;7.40;101458.00;;;;5107054;28;20633;-78
2021/07/05 02:53:19;;;;;;;34.00;22.70;;;;;7.20;101424.00;;;;5107484;28;20410;-78
2021/07/05 02:55:47;;;;;;;39.72;25.83;;;;;7.00;101431.00;;;;5107428;28;20027;-77
2021/07/05 02:58:14;;;;;;;38.30;23.88;;;;;7.10;101449.00;;;;5106946;28;20036;-77
2021/07/05 03:00:44;;;;;;;32.80;22.45;;;;;7.10;101427.00;;;;5106835;28;20490;-77
2021/07/05 03:03:12;;;;;;;31.30;20.92;;;;;6.90;101433.00;;;;5106853;28;20028;-77
2021/07/05 03:05:39;;;;;;;26.92;19.00;;;;;7.00;101425.00;;;;5106587;28;20032;-77
2021/07/05 03:08:06;;;;;;;29.38;19.13;;;;;6.90;101451.00;;;;5106704;28;20031;-77
2021/07/05 03:10:36;;;;;;;27.85;20.08;;;;;6.90;101455.00;;;;5106516;28;20407;-78
2021/07/05 03:13:07;;;;;;;25.40;19.63;;;;;6.90;101429.00;;;;5107036;28;20062;-77
2021/07/05 03:15:35;;;;;;;23.08;17.83;;;;;6.90;101417.00;;;;5107486;28;20479;-77
2021/07/05 03:18:03;;;;;;;29.35;19.40;;;;;6.80;101426.00;;;;5106829;28;20051;-77
2021/07/05 03:20:32;;;;;;;20.17;16.45;;;;;6.80;101439.00;;;;5107246;28;20028;-77
2021/07/05 03:23:00;;;;;;;24.40;17.30;;;;;6.80;101442.00;;;;5106270;28;20114;-77
2021/07/05 03:25:29;;;;;;;23.83;18.92;;;;;6.70;101441.00;;;;5106805;28;20031;-76
2021/07/05 03:27:56;;;;;;;25.15;18.30;;;;;6.70;101426.00;;;;5106629;28;20452;-77
2021/07/05 03:30:25;;;;;;;25.38;18.38;;;;;6.70;101428.00;;;;5106883;28;20092;-77
2021/07/05 03:32:52;;;;;;;26.92;17.90;;;;;6.70;101413.00;;;;5106630;28;20023;-76
2021/07/05 03:35:19;;;;;;;27.90;17.23;;;;;6.70;101435.00;;;;5107057;28;20032;-77
2021/07/05 03:37:47;;;;;;;28.23;18.58;;;;;6.80;101437.00;;;;5106804;28;20035;-77
2021/07/05 03:40:18;;;;;;;34.25;22.23;;;;;6.70;101410.00;;;;5106858;28;20106;-77
2021/07/05 03:42:46;;;;;;;38.08;22.50;;;;;6.80;101424.00;;;;5106510;28;20027;-77
2021/07/05 03:45:15;;;;;;;32.92;21.10;;;;;6.80;101420.00;;;;5107612;28;20540;-77
2021/07/05 03:47:42;;;;;;;33.45;21.65;;;;;6.80;101420.00;;;;5110778;28;20032;-77
2021/07/05 03:50:10;;;;;;;30.30;20.60;;;;;6.70;101410.00;;;;5110218;28;20047;-76
2021/07/05 03:52:37;;;;;;;25.17;18.30;;;;;6.70;101411.00;;;;5110161;28;20483;-76
2021/07/05 03:55:06;;;;;;;25.00;16.92;;;;;6.70;101429.00;;;;5110227;28;20027;-76
2021/07/05 03:57:32;;;;;;;25.75;17.77;;;;;6.70;101432.00;;;;5110049;28;20039;-77
2021/07/05 03:59:59;;;;;;;21.65;16.15;;;;;6.60;101399.00;;;;5110255;28;20034;-77
2021/07/05 04:02:26;;;;;;;23.50;16.65;;;;;6.60;101391.00;;;;5109854;28;20101;-77
2021/07/05 04:04:56;;;;;;;32.17;19.65;;;;;6.60;101402.00;;;;5110456;28;20588;-77
2021/07/05 04:07:23;;;;;;;32.90;21.80;;;;;6.60;101420.00;;;;5110021;28;20031;-77
2021/07/05 04:09:50;;;;;;;32.05;22.40;;;;;6.70;101430.00;;;;5109940;28;20068;-76
2021/07/05 04:12:20;;;;;;;32.38;20.17;;;;;6.60;101400.00;;;;5109140;28;20084;-76
2021/07/05 04:14:48;;;;;;;34.47;18.35;;;;;6.50;101415.00;;;;5110217;28;20055;-76
2021/07/05 04:17:14;;;;;;;34.30;20.83;;;;;6.40;101389.00;;;;5110076;28;20024;-77
2021/07/05 04:19:42;;;;;;;34.25;23.55;;;;;6.40;101407.00;;;;5109482;28;20039;-76
2021/07/05 04:22:09;;;;;;;53.95;28.98;;;;;6.50;101406.00;;;;5109657;28;20031;-76
2021/07/05 04:24:36;;;;;;;54.35;29.15;;;;;6.50;101397.00;;;;5109413;28;20031;-77
2021/07/05 04:27:02;;;;;;;39.47;25.60;;;;;6.60;101400.00;;;;5109516;28;20031;-78
2021/07/05 04:29:29;;;;;;;41.35;25.35;;;;;6.50;101398.00;;;;5091616;28;20470;-77
2021/07/05 04:31:56;;;;;;;46.00;27.77;;;;;6.50;101385.00;;;;5110102;28;20042;-77
2021/07/05 04:34:22;;;;;;;51.85;29.00;;;;;6.40;101394.00;;;;5109559;28;20030;-76
2021/07/05 04:36:49;;;;;;;43.92;26.42;;;;;6.40;101409.00;;;;5091306;28;20028;-77
2021/07/05 04:39:15;;;;;;;40.90;26.33;;;;;6.30;101414.00;;;;5109441;28;20024;-77
2021/07/05 04:41:42;;;;;;;35.97;23.00;;;;;6.30;101384.00;;;;5109210;28;20529;-77
2021/07/05 04:44:12;;;;;;;31.33;21.38;;;;;6.30;101392.00;;;;5109395;28;20031;-77
2021/07/05 04:46:40;;;;;;;28.27;18.65;;;;;6.20;101411.00;;;;5108986;28;20031;-77
2021/07/05 04:49:07;;;;;;;33.53;20.45;;;;;6.10;101393.00;;;;5109411;28;20031;-76
2021/07/05 04:51:33;;;;;;;26.48;19.98;;;;;6.00;101410.00;;;;5109281;28;20059;-76
2021/07/05 04:54:00;;;;;;;28.35;19.95;;;;;6.00;101404.00;;;;5109216;28;20370;-76
2021/07/05 04:56:26;;;;;;;30.63;19.92;;;;;6.00;101397.00;;;;5109442;28;20023;-77
2021/07/05 04:58:53;;;;;;;29.35;20.48;;;;;6.00;101421.00;;;;5109195;28;20453;-77
2021/07/05 05:01:20;;;;;;;24.95;18.77;;;;;6.00;101398.00;;;;5108588;28;20051;-77
2021/07/05 05:03:46;;;;;;;29.83;20.30;;;;;6.10;101397.00;;;;5109335;28;20049;-77
2021/07/05 05:06:13;;;;;;;34.90;20.08;;;;;6.10;101395.00;;;;5108899;28;20038;-76
2021/07/05 05:08:39;;;;;;;33.67;20.42;;;;;6.10;101425.00;;;;5109360;28;20127;-77
2021/07/05 05:11:06;;;;;;;70.20;21.00;;;;;6.10;101400.00;;;;5108693;28;20055;-76
2021/07/05 05:13:33;;;;;;;76.47;21.63;;;;;6.20;101392.00;;;;5108848;28;20395;-77
2021/07/05 05:15:59;;;;;;;120.15;22.08;;;;;6.20;101424.00;;;;5108814;28;20197;-77
2021/07/05 05:18:26;;;;;;;191.40;26.50;;;;;6.30;101413.00;;;;5108578;28;20020;-77
2021/07/05 05:20:54;;;;;;;101.97;23.98;;;;;6.30;101421.00;;;;5108918;28;20038;-78
2021/07/05 05:23:21;;;;;;;201.77;27.10;;;;;6.30;101409.00;;;;5108813;28;20019;-77
2021/07/05 05:25:48;;;;;;;150.20;25.50;;;;;6.30;101412.00;;;;5108300;28;20045;-77
2021/07/05 05:28:15;;;;;;;174.15;27.08;;;;;6.40;101403.00;;;;5108369;28;20487;-77
2021/07/05 05:30:41;;;;;;;121.93;25.33;;;;;6.40;101431.00;;;;5108633;28;20032;-77
2021/07/05 05:33:08;;;;;;;114.10;23.00;;;;;6.40;101412.00;;;;5108095;28;20110;-78
2021/07/05 05:35:35;;;;;;;109.00;24.13;;;;;6.30;101437.00;;;;5108078;28;20498;-78
2021/07/05 05:38:01;;;;;;;131.07;27.60;;;;;6.30;101424.00;;;;5108571;28;20051;-78
2021/07/05 05:40:28;;;;;;;98.03;27.17;;;;;6.40;101420.00;;;;5108614;28;20027;-77
2021/07/05 05:42:55;;;;;;;147.73;29.92;;;;;6.40;101434.00;;;;5090007;28;20395;-78
2021/07/05 05:45:22;;;;;;;115.38;27.75;;;;;6.30;101438.00;;;;5090201;28;20410;-77
2021/07/05 05:47:49;;;;;;;88.97;24.33;;;;;6.30;101402.00;;;;5108339;28;20695;-77
2021/07/05 05:50:16;;;;;;;70.65;23.88;;;;;6.30;101429.00;;;;5108155;28;20106;-77
2021/07/05 05:52:43;;;;;;;35.33;18.35;;;;;6.40;101440.00;;;;5108303;28;20111;-78
2021/07/05 05:55:10;;;;;;;38.33;20.17;;;;;6.40;101452.00;;;;5107798;28;20027;-78
2021/07/05 05:57:38;;;;;;;33.22;19.00;;;;;6.30;101454.00;;;;5107784;28;20028;-78
2021/07/05 06:00:09;;;;;;;31.65;19.52;;;;;6.30;101445.00;;;;5108241;28;20028;-77
2021/07/05 06:02:36;;;;;;;48.50;19.08;;;;;6.30;101443.00;;;;5083359;28;20071;-76
2021/07/05 06:05:03;;;;;;;91.32;19.63;;;;;6.40;101426.00;;;;5118681;28;20429;-77
2021/07/05 06:07:30;;;;;;;78.53;19.50;;;;;6.30;101450.00;;;;5113088;28;20030;-78
2021/07/05 06:09:56;;;;;;;39.35;18.67;;;;;6.30;101443.00;;;;5108749;28;20063;-77
2021/07/05 06:12:23;;;;;;;55.95;18.15;;;;;6.40;101425.00;;;;5107798;28;20024;-77
2021/07/05 06:14:50;;;;;;;51.33;16.17;;;;;6.40;101422.00;;;;5107878;28;20063;-77
2021/07/05 06:17:16;;;;;;;72.32;17.52;;;;;6.40;101430.00;;;;5107360;28;20105;-78
2021/07/05 06:19:43;;;;;;;79.53;20.83;;;;;6.40;101433.00;;;;5106630;28;20494;-78
2021/07/05 06:22:18;;;;;;;37.75;18.23;;;;;6.30;101441.00;;;;5107190;28;20072;-77
2021/07/05 06:24:47;;;;;;;27.83;16.15;;;;;6.40;101448.00;;;;5107643;28;20020;-77
2021/07/05 06:27:14;;;;;;;24.58;15.98;;;;;6.30;101412.00;;;;5107104;28;20115;-77
2021/07/05 06:29:41;;;;;;;45.15;17.23;;;;;6.30;101428.00;;;;5107129;28;20050;-78
2021/07/05 06:32:08;;;;;;;64.45;16.92;;;;;6.30;101416.00;;;;5106894;28;20027;-77
2021/07/05 06:34:34;;;;;;;33.50;16.00;;;;;6.30;101446.00;;;;5108004;28;20030;-77
2021/07/05 06:37:01;;;;;;;29.85;16.08;;;;;6.30;101460.00;;;;5107727;28;20047;-78
2021/07/05 06:39:27;;;;;;;74.43;16.75;;;;;6.40;101451.00;;;;5107479;28;20551;-77
2021/07/05 06:41:54;;;;;;;43.50;15.32;;;;;6.50;101444.00;;;;5107128;28;20110;-77
2021/07/05 06:44:21;;;;;;;30.23;14.90;;;;;6.50;101424.00;;;;5107006;28;20407;-77
2021/07/05 06:46:47;;;;;;;35.65;14.90;;;;;6.50;101455.00;;;;5107523;28;20047;-77
2021/07/05 06:49:17;;;;;;;51.40;13.90;;;;;6.50;101439.00;;;;5107477;28;21133;-77
2021/07/05 06:51:49;;;;;;;31.52;12.43;;;;;6.50;101455.00;;;;5107102;28;20035;-77
2021/07/05 06:54:16;;;;;;;40.42;12.35;;;;;6.50;101469.00;;;;5107336;28;20064;-77
2021/07/05 06:56:43;;;;;;;23.92;11.75;;;;;6.50;101457.00;;;;5107001;28;20375;-77
2021/07/05 06:59:09;;;;;;;38.53;12.18;;;;;6.60;101459.00;;;;5107423;28;20024;-77
2021/07/05 07:01:36;;;;;;;75.47;12.95;;;;;6.60;101461.00;;;;5107615;28;20415;-77
2021/07/05 07:04:03;;;;;;;131.43;14.27;;;;;6.60;101471.00;;;;5107491;28;20032;-77
2021/07/05 07:06:30;;;;;;;100.43;13.43;;;;;6.60;101443.00;;;;5107480;28;20391;-77
2021/07/05 07:08:57;;;;;;;168.50;15.73;;;;;6.60;101482.00;;;;5107226;28;20047;-78
2021/07/05 07:11:24;;;;;;;79.65;12.48;;;;;6.60;101475.00;;;;5106800;28;20118;-78
2021/07/05 07:13:51;;;;;;;158.43;14.52;;;;;6.60;101476.00;;;;5106801;28;20084;-77
2021/07/05 07:16:20;;;;;;;111.50;13.68;;;;;6.60;101485.00;;;;5107122;28;20036;-78
2021/07/05 07:21:31;;;;;;;150.43;14.02;;;;;6.50;101493.00;;;;5110721;28;20624;-78
2021/07/05 07:23:58;;;;;;;125.70;13.88;;;;;6.40;101483.00;;;;5110792;28;20016;-77
2021/07/05 07:26:24;;;;;;;93.38;13.02;;;;;6.40;101464.00;;;;5111553;28;20063;-76
2021/07/05 07:28:55;;;;;;;77.18;12.23;;;;;6.30;101453.00;;;;5110883;28;20107;-77
2021/07/05 07:31:22;;;;;;;73.07;13.98;;;;;6.30;101456.00;;;;5110564;28;20024;-76
2021/07/05 07:33:49;;;;;;;87.22;13.93;;;;;6.30;101439.00;;;;5110540;28;20027;-76
2021/07/05 07:36:16;;;;;;;82.10;16.80;;;;;6.40;101451.00;;;;5110822;28;20035;-77
2021/07/05 07:38:47;;;;;;;42.50;16.60;;;;;6.50;101454.00;;;;5110132;28;20028;-77
2021/07/05 07:41:19;;;;;;;48.03;15.68;;;;;6.40;101471.00;;;;5110657;28;20487;-77
2021/07/05 07:43:47;;;;;;;62.92;14.73;;;;;6.30;101465.00;;;;5110991;28;20027;-77
2021/07/05 07:46:14;;;;;;;43.65;11.30;;;;;6.20;101479.00;;;;5110310;28;20458;-76
2021/07/05 07:48:40;;;;;;;31.15;11.73;;;;;6.20;101486.00;;;;5110451;28;20080;-77
2021/07/05 07:51:07;;;;;;;47.47;12.98;;;;;6.20;101457.00;;;;5109753;28;20039;-77
2021/07/05 07:53:34;;;;;;;50.70;13.60;;;;;6.20;101458.00;;;;5110750;28;20023;-76
2021/07/05 07:56:01;;;;;;;43.03;15.07;;;;;6.30;101453.00;;;;5110989;28;20031;-76
2021/07/05 07:58:27;;;;;;;40.55;14.90;;;;;6.30;101472.00;;;;5110354;28;20043;-76
2021/07/05 08:00:54;;;;;;;58.38;16.25;;;;;6.30;101479.00;;;;5109634;28;20031;-77
2021/07/05 08:03:21;;;;;;;60.20;17.52;;;;;6.40;101479.00;;;;5109712;28;20502;-76
2021/07/05 08:05:47;;;;;;;77.63;19.92;;;;;6.50;101493.00;;;;5110054;28;20070;-76
2021/07/05 08:08:15;;;;;;;103.68;21.73;;;;;6.40;101490.00;;;;5110225;28;20076;-77
2021/07/05 08:10:43;;;;;;;94.72;20.63;;;;;6.50;101463.00;;;;5110025;28;20027;-77
2021/07/05 08:13:10;;;;;;;137.20;22.17;;;;;6.60;101460.00;;;;5109818;28;20031;-74
2021/07/05 08:15:36;;;;;;;109.55;22.80;;;;;6.60;101502.00;;;;5109925;28;20505;-77
2021/07/05 08:18:03;;;;;;;107.10;19.13;;;;;6.60;101462.00;;;;5110050;28;20541;-76
2021/07/05 08:20:30;;;;;;;84.50;20.42;;;;;6.60;101479.00;;;;5110479;28;20028;-76
2021/07/05 08:22:57;;;;;;;90.22;20.02;;;;;6.60;101502.00;;;;5109796;28;20031;-77
2021/07/05 08:25:26;;;;;;;149.93;22.23;;;;;6.60;101510.00;;;;5109534;28;20039;-76
2021/07/05 08:27:53;;;;;;;176.20;21.77;;;;;6.70;101472.00;;;;5110112;28;20036;-79
2021/07/05 08:30:20;;;;;;;323.88;21.02;;;;;6.70;101486.00;;;;5109005;28;20039;-79
2021/07/05 08:32:49;;;;;;;163.02;18.95;;;;;6.70;101484.00;;;;5109422;28;20027;-78
2021/07/05 08:35:16;;;;;;;258.42;19.27;;;;;6.80;101505.00;;;;5109567;28;20024;-79
2021/07/05 08:37:43;;;;;;;170.50;18.38;;;;;6.80;101506.00;;;;5091185;28;20444;-78
2021/07/05 08:40:10;;;;;;;119.80;17.95;;;;;6.80;101513.00;;;;5109788;28;20031;-79
2021/07/05 08:42:38;;;;;;;151.00;17.83;;;;;6.70;101507.00;;;;5109713;28;20032;-77
2021/07/05 08:45:07;;;;;;;233.93;17.67;;;;;6.70;101483.00;;;;5109836;28;20488;-78
2021/07/05 08:47:41;;;;;;;345.83;20.40;;;;;6.70;101508.00;;;;5109330;28;20031;-77
2021/07/05 08:50:10;;;;;;;290.77;19.73;;;;;6.80;101490.00;;;;5109183;28;20030;-78
2021/07/05 08:52:42;;;;;;;142.80;16.25;;;;;6.70;101507.00;;;;5109191;28;20026;-79
2021/07/05 08:55:10;;;;;;;279.10;21.73;;;;;6.70;101514.00;;;;5109054;28;20097;-77
2021/07/05 08:57:38;;;;;;;200.65;18.77;;;;;6.60;101504.00;;;;5108687;28;20440;-77
2021/07/05 09:00:11;;;;;;;265.30;17.42;;;;;6.50;101504.00;;;;5108457;28;20104;-78
2021/07/05 09:02:38;;;;;;;158.23;18.73;;;;;6.50;101482.00;;;;5108608;28;20043;-78
2021/07/05 09:05:06;;;;;;;138.27;16.02;;;;;6.50;101519.00;;;;5109161;28;20020;-78
2021/07/05 09:07:33;;;;;;;46.42;11.35;;;;;6.30;101506.00;;;;5108865;28;20403;-78
2021/07/05 09:10:09;;;;;;;55.00;10.48;;;;;6.10;101496.00;;;;5109161;28;20024;-78
2021/07/05 09:12:35;;;;;;;67.20;11.55;;;;;5.90;101531.00;;;;5108745;28;20067;-78
2021/07/05 09:15:14;;;;;;;64.57;11.13;;;;;5.80;101499.00;;;;5090625;28;20024;-78
2021/07/05 09:17:43;;;;;;;44.92;10.70;;;;;5.70;101515.00;;;;5091344;28;20044;-79
2021/07/05 09:20:20;;;;;;;30.13;11.40;;;;;5.70;101532.00;;;;5108436;28;20128;-78
2021/07/05 09:23:12;;;;;;;24.35;11.18;;;;;5.60;101543.00;;;;5108365;28;20031;-78
2021/07/05 09:25:42;;;;;;;47.30;11.00;;;;;5.50;101532.00;;;;5108111;28;20035;-78
2021/07/05 09:28:09;;;;;;;34.55;11.45;;;;;5.60;101514.00;;;;5108820;28;20032;-77
2021/07/05 09:30:40;;;;;;;30.15;10.98;;;;;5.60;101523.00;;;;5108058;28;20057;-78
2021/07/05 09:33:26;;;;;;;25.17;10.60;;;;;5.60;101545.00;;;;5107728;28;20059;-78
2021/07/05 09:35:59;;;;;;;33.05;9.48;;;;;5.50;101516.00;;;;5108729;28;20046;-78
2021/07/05 09:38:35;;;;;;;32.53;9.55;;;;;5.30;101527.00;;;;5108798;28;20035;-78
2021/07/05 09:41:21;;;;;;;25.10;9.95;;;;;5.30;101547.00;;;;5107945;28;20111;-78
2021/07/05 09:43:54;;;;;;;19.13;8.85;;;;;5.30;101529.00;;;;5107455;28;20511;-78
2021/07/05 09:46:41;;;;;;;18.42;10.15;;;;;5.20;101533.00;;;;5108466;28;20558;-78
2021/07/05 09:49:13;;;;;;;17.02;9.07;;;;;5.20;101550.00;;;;5107428;28;20042;-77
2021/07/05 09:51:43;;;;;;;;;;;;;5.20;101547.00;;;;5107424;28;20041;-75
2021/07/05 09:54:10;;;;;;;13.75;9.02;;;;;5.20;101524.00;;;;5107893;28;20401;-77
2021/07/05 09:56:37;;;;;;;30.50;9.70;;;;;5.10;101525.00;;;;5107661;28;20028;-78
2021/07/05 09:59:22;;;;;;;29.17;10.48;;;;;5.20;101562.00;;;;5107725;28;20406;-78
2021/07/05 10:01:53;;;;;;;22.63;9.57;;;;;5.20;101554.00;;;;5108193;28;20056;-78
2021/07/05 10:04:32;;;;;;;34.72;10.77;;;;;5.20;101560.00;;;;5105704;28;20608;-78
2021/07/05 10:07:01;;;;;;;26.77;10.05;;;;;5.20;101559.00;;;;5108003;28;20494;-78
2021/07/05 10:09:48;;;;;;;34.55;10.73;;;;;5.20;101531.00;;;;5107733;28;20479;-78
2021/07/05 10:12:18;;;;;;;40.55;11.95;;;;;5.30;101574.00;;;;5107201;28;20093;-78
2021/07/05 10:15:04;;;;;;;40.40;12.65;;;;;5.40;101574.00;;;;5108316;28;20110;-79
2021/07/05 10:17:36;;;;;;;63.65;12.45;;;;;5.50;101576.00;;;;5107665;28;20037;-76
2021/07/05 10:20:11;;;;;;;52.88;12.63;;;;;5.40;101589.00;;;;5107231;28;20027;-76
2021/07/05 10:22:43;;;;;;;27.95;11.57;;;;;5.30;101568.00;;;;5106901;28;20032;-79
2021/07/05 10:25:11;;;;;;;349.50;18.33;;;;;5.20;101556.00;;;;5107013;28;20031;-79
2021/07/05 10:27:38;;;;;;;90.13;13.43;;;;;5.30;101566.00;;;;5108355;28;20059;-79
2021/07/05 10:30:15;;;;;;;106.50;19.13;;;;;5.30;101559.00;;;;5107563;28;20466;-79
2021/07/05 10:32:43;;;;;;;154.30;15.73;;;;;5.40;101546.00;;;;5107301;28;20407;-77
2021/07/05 10:35:12;;;;;;;119.50;15.85;;;;;5.30;101555.00;;;;5107221;28;20076;-78
2021/07/05 10:37:55;;;;;;;70.00;17.90;;;;;5.40;101597.00;;;;5106658;28;20372;-76
2021/07/05 10:40:26;;;;;;;77.45;17.90;;;;;5.40;101573.00;;;;5107214;28;20023;-76
2021/07/05 10:42:58;;;;;;;82.35;17.23;;;;;5.50;101606.00;;;;5107342;28;20154;-77
2021/07/05 10:45:41;;;;;;;64.65;16.77;;;;;5.50;101585.00;;;;5106139;28;20499;-78
2021/07/05 10:48:10;;;;;;;63.80;17.13;;;;;5.70;101584.00;;;;5106393;28;20046;-77
2021/07/05 10:50:44;;;;;;;98.65;16.20;;;;;5.70;101612.00;;;;5106543;28;20081;-78
2021/07/05 10:53:13;;;;;;;124.68;13.73;;;;;5.80;101572.00;;;;5106915;28;20483;-77
2021/07/05 10:55:44;;;;;;;179.52;14.82;;;;;5.90;101608.00;;;;5111047;28;20146;-77
2021/07/05 10:58:18;;;;;;;103.10;21.27;;;;;6.00;101612.00;;;;5111040;28;20027;-76
2021/07/05 11:00:51;;;;;;;156.30;12.38;;;;;6.10;101591.00;;;;5109889;28;20067;-77
2021/07/05 11:03:37;;;;;;;162.52;10.48;;;;;6.10;101608.00;;;;5110545;28;20019;-78
2021/07/05 11:06:10;;;;;;;80.45;10.20;;;;;6.20;101605.00;;;;5094148;28;20036;-78
2021/07/05 11:08:42;;;;;;;88.95;9.93;;;;;6.30;101617.00;;;;5111746;28;20031;-77
2021/07/05 11:11:18;;;;;;;114.47;9.57;;;;;6.30;101603.00;;;;5111079;28;20386;-77
2021/07/05 11:13:46;;;;;;;137.85;11.50;;;;;6.40;101581.00;;;;5111722;28;20102;-77
2021/07/05 11:16:13;;;;;;;229.68;11.52;;;;;6.50;101582.00;;;;5111577;28;20027;-77
2021/07/05 11:18:42;;;;;;;122.10;9.98;;;;;6.50;101604.00;;;;5111377;28;20475;-78
2021/07/05 11:21:30;;;;;;;144.80;13.65;;;;;6.60;101598.00;;;;5110500;28;20566;-77
2021/07/05 11:23:58;;;;;;;114.78;22.48;;;;;6.80;101606.00;;;;5099612;28;20418;-77
2021/07/05 11:26:40;;;;;;;127.32;19.25;;;;;7.00;101598.00;;;;5110776;28;20038;-77
2021/07/05 11:29:16;;;;;;;93.70;9.93;;;;;7.20;101593.00;;;;5110785;28;20047;-77
2021/07/05 11:31:53;;;;;;;97.97;9.60;;;;;7.40;101541.00;;;;5110325;28;20725;-77
2021/07/05 11:34:35;;;;;;;88.25;9.18;;;;;7.90;101545.00;;;;5110920;28;20043;-77
2021/07/05 11:37:14;;;;;;;35.40;7.65;;;;;8.30;101561.00;;;;5110752;28;20027;-77
2021/07/05 11:39:52;;;;;;;7.65;6.85;;;;;8.40;101588.00;;;;5111003;28;20023;-76
2021/07/05 11:42:43;;;;;;;20.63;7.93;;;;;8.60;101517.00;;;;5110490;28;20574;-77
2021/07/05 11:45:10;;;;;;;15.83;6.93;;;;;9.40;101540.00;;;;5110097;28;20039;-78
2021/07/05 11:47:37;;;;;;;9.15;6.70;;;;;10.10;101520.00;;;;5110405;28;20285;-76
2021/07/05 11:50:21;;;;;;;17.45;6.88;;;;;11.00;101528.00;;;;5110017;28;20035;-78
2021/07/05 11:53:03;;;;;;;10.45;7.38;;;;;10.70;101490.00;;;;5110035;28;20023;-77
2021/07/05 11:55:35;;;;;;;10.73;6.55;;;;;11.50;101441.00;;;;5110208;28;20441;-77
2021/07/05 11:58:06;;;;;;;15.65;7.80;;;;;13.30;101443.00;;;;5110175;28;20071;-79
2021/07/05 12:00:39;;;;;;;8.70;6.95;;;;;14.20;101468.00;;;;5110001;28;20037;-77
2021/07/05 12:03:14;;;;;;;9.85;7.28;;;;;14.70;101458.00;;;;5081766;28;20037;-76
2021/07/05 12:05:43;;;;;;;8.30;7.03;;;;;14.30;101484.00;;;;5088102;28;20024;-76
2021/07/05 12:08:12;;;;;;;7.95;7.13;;;;;15.00;101428.00;;;;5081493;28;20036;-77
2021/07/05 12:10:41;;;;;;;7.75;6.55;;;;;15.80;101461.00;;;;5070507;28;20067;-76